MMPB/PBC METAR and TAF weather

Enter ICAO airport designator
Station Type Date Time Source
MMPB METAR 2021/09/15 23:40 UTC NOAA

MMPB 152340Z 14006KT 10SM BKN020CB 18/15 A3021 RMK 8/900 HZY


Station Type Date Time Source
MMPB Decoded METAR 2021/09/15 23:40 UTC NOAA

Puebla, Pue., Mexico (MMPB) 19-03N 098-10W
Sep 15, 2021 - 07:40 PM EDT / 2021.09.15 2340 UTC
Wind: from the SE (140 degrees) at 7 MPH (6 KT):0
Visibility: 10 mile(s):0
Sky conditions: mostly cloudy
Weather: Cumulonimbus clouds observed
Temperature: 64 F (18 C)
Dew Point: 59 F (15 C)
Relative Humidity: 82%
Pressure (altimeter): 30.21 in. Hg (1023 hPa)
ob: MMPB 152340Z 14006KT 10SM BKN020CB 18/15 A3021 RMK 8/900 HZY
cycle: 23

Station Type Date Time Source
MMPB TAF 2021/09/16 06:57 UTC NOAA

TAF TAF MMPB 160354Z 1606/1706 13005KT P6SM SCT020 BKN200
FM161600 16005KT P6SM SCT020
FM162200 16012KT P6SM BKN020 BKN080 PROB40 1622/1702 3SM TSRA BKN020CB
FM170300 16005KT P6SM SCT020 BKN200

Example: see airport list